Time;durP1;ratioP1;P1;durP2;ratioP2;P2;SDS_P1;SDS_P2;PMS_P1;PMS_P2;Temp;Humidity;BMP_temperature;BMP_pressure;BME280_temperature;BME280_humidity;BME280_pressure;Samples;Min_cycle;Max_cycle;Signal;HPM_P1;HPM_P2
2022/03/23 05:16:01;;;;;;;29.05;14.52;;;;;;;2.00;63.83;102041.66;5560001;32;207069;-87
2022/03/23 05:19:06;;;;;;;29.73;15.48;;;;;;;1.95;64.69;102039.81;5547320;32;33860;-88
2022/03/23 05:22:09;;;;;;;24.17;14.95;;;;;;;1.97;64.29;102035.50;5546456;32;35221;-84
2022/03/23 05:25:13;;;;;;;26.12;13.88;;;;;;;2.05;63.79;102043.47;5547078;32;34807;-83
2022/03/23 05:28:16;;;;;;;30.62;14.75;;;;;;;2.15;62.86;102046.19;5547462;32;34546;-83
2022/03/23 05:31:19;;;;;;;25.67;13.93;;;;;;;2.23;64.59;102037.56;5549305;32;34139;-83
2022/03/23 05:34:21;;;;;;;24.12;13.80;;;;;;;2.36;61.41;102035.97;5549161;32;35059;-83
2022/03/23 05:37:24;;;;;;;23.67;14.13;;;;;;;2.43;61.40;102038.66;5552304;32;33648;-84
2022/03/23 05:40:27;;;;;;;24.33;13.40;;;;;;;2.70;60.89;102038.94;5554510;32;33682;-84
2022/03/23 05:43:30;;;;;;;25.90;14.32;;;;;;;2.82;58.88;102040.81;5549360;32;33896;-82
2022/03/23 05:46:32;;;;;;;26.05;14.07;;;;;;;2.84;58.28;102041.69;5549425;32;34279;-82
2022/03/23 05:49:36;;;;;;;22.15;13.85;;;;;;;3.00;57.73;102044.44;5548984;32;33829;-83
2022/03/23 05:52:40;;;;;;;22.25;13.38;;;;;;;3.43;55.78;102047.41;5552202;32;34148;-83
2022/03/23 05:55:43;;;;;;;26.02;13.23;;;;;;;3.41;56.04;102043.87;5552715;32;34822;-83
2022/03/23 05:58:45;;;;;;;24.50;13.48;;;;;;;3.49;55.27;102049.19;5556547;32;33617;-83
2022/03/23 06:01:48;;;;;;;26.98;13.32;;;;;;;4.19;52.66;102049.56;5555050;32;35164;-83
2022/03/23 06:04:51;;;;;;;21.58;12.68;;;;;;;5.09;49.89;102043.59;5551440;32;34023;-83
2022/03/23 06:07:54;;;;;;;22.75;12.82;;;;;;;6.06;44.51;102039.06;5551527;32;34154;-82
2022/03/23 06:10:57;;;;;;;18.25;12.20;;;;;;;8.30;41.86;102038.91;5552961;32;34679;-83
2022/03/23 06:13:59;;;;;;;20.15;13.18;;;;;;;10.14;34.98;102028.69;5551013;32;34028;-83
2022/03/23 06:17:02;;;;;;;22.87;12.75;;;;;;;11.03;32.45;102024.03;5549928;32;34496;-83
2022/03/23 06:20:06;;;;;;;20.20;13.23;;;;;;;13.91;29.78;102016.97;5548354;32;34689;-84
2022/03/23 06:23:09;;;;;;;18.05;12.65;;;;;;;16.25;25.31;102021.50;5548715;32;34842;-83
2022/03/23 06:26:12;;;;;;;19.98;13.00;;;;;;;16.64;24.33;102019.66;5542270;32;34637;-84
2022/03/23 06:29:15;;;;;;;18.15;13.60;;;;;;;15.25;24.12;102025.94;5540942;32;34662;-83
2022/03/23 06:32:22;;;;;;;17.70;12.43;;;;;;;15.10;24.67;102016.75;5536268;32;34463;-83
2022/03/23 06:35:26;;;;;;;15.65;12.35;;;;;;;17.63;22.15;102017.31;5534875;32;34221;-84
2022/03/23 06:38:30;;;;;;;16.42;12.43;;;;;;;17.86;21.73;102017.00;5518684;32;33709;-83
2022/03/23 06:41:34;;;;;;;19.02;12.98;;;;;;;16.88;22.22;102025.59;5516760;32;35105;-83
2022/03/23 06:44:38;;;;;;;20.85;14.20;;;;;;;16.20;23.45;102020.84;5516812;32;33948;-84
2022/03/23 06:47:41;;;;;;;19.55;12.73;;;;;;;15.98;23.10;102021.84;5522457;32;34541;-82
2022/03/23 06:50:45;;;;;;;21.48;12.73;;;;;;;17.71;21.56;102032.97;5535821;32;33849;-83
2022/03/23 06:53:48;;;;;;;22.27;13.62;;;;;;;18.21;20.90;102016.03;5529335;32;34343;-83
2022/03/23 06:56:51;;;;;;;25.37;13.40;;;;;;;18.45;20.59;102016.44;5529990;32;33966;-82
2022/03/23 06:59:54;;;;;;;19.27;12.10;;;;;;;18.35;20.60;102018.78;5556830;32;34576;-83
2022/03/23 07:02:57;;;;;;;22.67;13.30;;;;;;;19.72;19.75;102026.06;5557672;32;34398;-84
2022/03/23 07:06:19;;;;;;;19.73;13.70;;;;;;;20.15;19.16;102020.66;5524971;32;34186;-84
2022/03/23 07:09:31;;;;;;;21.98;12.93;;;;;;;19.46;19.90;102015.09;5533335;32;34590;-82
2022/03/23 07:12:34;;;;;;;22.50;13.07;;;;;;;20.71;19.07;102008.06;5550480;32;35001;-87
2022/03/23 07:15:37;;;;;;;20.75;13.80;;;;;;;20.28;19.13;102009.09;5558082;32;35344;-88
2022/03/23 07:18:40;;;;;;;21.90;14.32;;;;;;;18.79;20.28;102021.69;5537252;32;33880;-88
2022/03/23 07:21:43;;;;;;;20.70;14.45;;;;;;;18.16;21.27;102022.50;5536777;32;33975;-84
2022/03/23 07:24:46;;;;;;;20.75;14.63;;;;;;;16.88;22.88;102017.53;5544240;32;34511;-84
2022/03/23 07:27:48;;;;;;;20.90;13.65;;;;;;;18.06;22.02;102015.94;5546757;32;35107;-83
2022/03/23 07:30:51;;;;;;;19.42;13.90;;;;;;;19.97;20.11;102014.66;5539215;32;34239;-84
2022/03/23 07:33:54;;;;;;;18.95;13.18;;;;;;;21.06;18.43;102012.09;5516283;32;33725;-84
2022/03/23 07:36:57;;;;;;;20.08;13.65;;;;;;;22.40;17.65;102019.75;5517063;32;33873;-85
2022/03/23 07:40:01;;;;;;;22.55;14.57;;;;;;;23.18;16.60;102007.66;5516328;32;34294;-84
2022/03/23 07:43:07;;;;;;;20.23;13.07;;;;;;;24.55;15.25;102004.91;5541865;32;34430;-83
2022/03/23 07:46:12;;;;;;;20.50;13.45;;;;;;;25.74;15.05;102007.44;5525175;32;33689;-85
2022/03/23 07:49:16;;;;;;;16.58;12.63;;;;;;;26.51;14.05;101999.63;5527939;32;34335;-84
2022/03/23 07:52:19;;;;;;;19.77;13.85;;;;;;;26.83;13.71;102003.06;5525816;32;34638;-84
2022/03/23 07:55:22;;;;;;;21.85;13.88;;;;;;;29.30;11.90;102005.28;5533077;32;34276;-84
2022/03/23 07:58:25;;;;;;;18.37;12.48;;;;;;;27.89;12.24;102005.81;5528728;32;34257;-84
2022/03/23 08:01:30;;;;;;;21.50;14.18;;;;;;;29.03;12.02;102009.91;5530509;32;34298;-84
2022/03/23 08:04:34;;;;;;;19.20;13.88;;;;;;;30.72;10.58;102003.91;5526057;32;34306;-84
2022/03/23 08:07:37;;;;;;;19.15;13.75;;;;;;;30.04;10.41;102006.69;5533495;32;34707;-85
2022/03/23 08:10:42;;;;;;;19.23;13.73;;;;;;;33.12;9.17;102000.25;5529108;32;33737;-84
2022/03/23 08:13:49;;;;;;;19.75;13.85;;;;;;;30.89;10.18;101999.31;5537587;32;34023;-83
2022/03/23 08:16:52;;;;;;;19.52;14.05;;;;;;;30.83;9.81;101999.13;5526703;32;34048;-86
2022/03/23 08:23:19;;;;;;;20.25;14.25;;;;;;;32.23;9.73;102003.31;5530948;32;33901;-86
2022/03/23 08:26:21;;;;;;;21.77;14.65;;;;;;;31.59;9.73;101994.19;5517123;32;33953;-84
2022/03/23 08:29:24;;;;;;;18.45;13.77;;;;;;;33.95;8.54;101996.50;5539369;32;34690;-84
2022/03/23 08:32:27;;;;;;;19.10;14.10;;;;;;;30.90;9.64;101998.28;5530817;32;34171;-85
2022/03/23 08:35:34;;;;;;;19.35;14.63;;;;;;;28.82;11.63;101998.44;5518993;32;34105;-84
2022/03/23 08:38:37;;;;;;;20.12;13.80;;;;;;;29.00;11.59;101988.38;5520725;32;33871;-85
2022/03/23 08:41:40;;;;;;;22.15;15.43;;;;;;;27.00;12.46;101992.50;5524290;32;33873;-86
2022/03/23 08:44:45;;;;;;;20.33;14.80;;;;;;;27.17;12.43;101985.44;5534365;32;34289;-84
2022/03/23 08:47:49;;;;;;;23.33;16.95;;;;;;;25.86;13.55;101989.19;5537266;32;34308;-84
2022/03/23 08:50:52;;;;;;;25.02;14.85;;;;;;;25.53;13.76;101981.22;5536886;32;34232;-85
2022/03/23 08:53:55;;;;;;;26.23;16.08;;;;;;;23.04;15.91;101978.97;5542171;32;34831;-85
2022/03/23 08:56:58;;;;;;;23.15;15.02;;;;;;;24.27;15.23;101985.53;5543616;32;35186;-85
2022/03/23 09:00:02;;;;;;;22.40;14.70;;;;;;;24.59;14.76;101977.41;5544539;32;35180;-85
2022/03/23 09:03:07;;;;;;;21.98;14.98;;;;;;;24.21;14.77;101979.66;5533197;32;34441;-85
2022/03/23 09:06:10;;;;;;;22.67;13.57;;;;;;;24.67;15.20;101982.19;5540870;32;34081;-88
2022/03/23 09:09:13;;;;;;;22.23;13.43;;;;;;;24.53;14.44;101971.66;5518005;32;34465;-87
2022/03/23 09:12:16;;;;;;;21.70;14.27;;;;;;;25.16;14.34;101968.97;5522830;32;34603;-86
2022/03/23 09:15:20;;;;;;;20.67;13.13;;;;;;;24.19;14.53;101976.19;5526938;32;34699;-82
2022/03/23 09:18:26;;;;;;;24.37;13.27;;;;;;;24.52;14.64;101965.34;5529311;32;34742;-83
2022/03/23 09:21:29;;;;;;;20.75;13.88;;;;;;;24.15;15.11;101968.44;5529426;32;34371;-83
2022/03/23 09:24:32;;;;;;;20.70;13.57;;;;;;;24.71;15.78;101969.22;5527399;32;33958;-83
2022/03/23 09:27:38;;;;;;;23.10;14.00;;;;;;;24.33;15.43;101963.31;5516296;32;33814;-83
2022/03/23 09:30:41;;;;;;;20.90;13.20;;;;;;;24.60;14.76;101962.00;5513356;32;34694;-83
2022/03/23 09:33:48;;;;;;;24.23;12.93;;;;;;;24.62;15.35;101960.00;5521387;32;33944;-83
2022/03/23 09:40:20;;;;;;;17.85;12.27;;;;;;;25.03;15.33;101947.47;5521419;32;34638;-84
2022/03/23 09:43:24;;;;;;;20.10;12.80;;;;;;;25.27;14.51;101949.03;5524943;32;32252;-84
2022/03/23 09:46:27;;;;;;;18.25;11.88;;;;;;;25.16;14.71;101947.25;5534816;32;34939;-84
2022/03/23 09:49:30;;;;;;;19.10;11.50;;;;;;;23.68;15.41;101951.34;5522756;32;33777;-85
2022/03/23 09:52:33;;;;;;;17.73;10.68;;;;;;;23.73;16.11;101947.44;5522339;32;35148;-86
2022/03/23 09:55:37;;;;;;;19.05;11.50;;;;;;;24.26;15.18;101941.28;5515560;32;33826;-84
2022/03/23 09:58:43;;;;;;;20.95;12.15;;;;;;;24.83;15.15;101932.06;5516184;32;35229;-85
2022/03/23 10:01:49;;;;;;;21.52;11.93;;;;;;;25.36;13.98;101928.34;5515132;32;34078;-83
2022/03/23 10:05:34;;;;;;;14.87;11.20;;;;;;;25.01;14.21;101932.31;5516606;32;33970;-86
2022/03/23 10:08:58;;;;;;;17.23;10.68;;;;;;;25.24;14.53;101933.00;5515400;32;34373;-84
2022/03/23 10:12:19;;;;;;;24.23;10.98;;;;;;;24.85;14.11;101932.78;5530029;32;34046;-85
2022/03/23 10:15:45;;;;;;;20.83;11.12;;;;;;;23.02;15.06;101924.97;5538018;32;33907;-84
2022/03/23 10:18:59;;;;;;;17.77;10.82;;;;;;;23.90;14.79;101925.25;5508192;32;33916;-85
2022/03/23 10:22:10;;;;;;;18.20;11.23;;;;;;;24.74;13.87;101922.84;5535101;32;33907;-85
2022/03/23 10:25:14;;;;;;;16.15;10.50;;;;;;;25.29;13.21;101902.75;5545933;32;33905;-85
2022/03/23 10:28:18;;;;;;;21.58;10.68;;;;;;;23.63;15.11;101909.41;5541119;32;34984;-85
2022/03/23 10:31:24;;;;;;;25.85;11.35;;;;;;;24.37;14.29;101899.72;5523943;32;34279;-85
2022/03/23 10:34:37;;;;;;;15.10;10.30;;;;;;;26.70;12.87;101899.09;5519008;32;34956;-84
2022/03/23 10:37:41;;;;;;;22.25;10.75;;;;;;;29.63;10.54;101898.03;5524836;32;34582;-82
2022/03/23 10:40:45;;;;;;;19.17;10.38;;;;;;;27.92;11.59;101891.00;5520422;32;33801;-83
2022/03/23 10:43:48;;;;;;;21.00;10.10;;;;;;;27.80;12.14;101888.50;5534472;32;34791;-83
2022/03/23 10:46:50;;;;;;;17.33;10.73;;;;;;;26.21;12.40;101878.22;5533354;32;34513;-84
2022/03/23 10:49:54;;;;;;;21.75;10.63;;;;;;;26.54;12.37;101875.22;5533566;32;34105;-83
2022/03/23 10:53:02;;;;;;;17.15;10.63;;;;;;;25.40;13.12;101856.44;5535872;32;34493;-83
2022/03/23 10:56:06;;;;;;;13.82;10.88;;;;;;;24.82;13.50;101873.34;5538854;32;34121;-82
2022/03/23 10:59:16;;;;;;;15.40;10.93;;;;;;;23.91;14.00;101864.63;5534590;32;34287;-82
2022/03/23 11:02:20;;;;;;;16.10;10.70;;;;;;;24.09;13.94;101864.13;5534052;32;34818;-83
2022/03/23 11:05:39;;;;;;;15.23;10.30;;;;;;;26.17;12.79;101855.88;5535935;32;34426;-83
2022/03/23 11:08:44;;;;;;;15.88;9.93;;;;;;;29.55;10.28;101849.66;5538435;32;34605;-88
2022/03/23 11:19:11;;;;;;;16.62;10.00;;;;;;;27.08;11.57;101833.81;5521624;32;35148;-83
2022/03/23 11:22:17;;;;;;;13.90;9.18;;;;;;;24.29;13.20;101826.31;5524312;32;34598;-84
2022/03/23 11:25:20;;;;;;;19.58;11.32;;;;;;;23.91;13.29;101832.12;5533152;32;34034;-83
2022/03/23 11:28:25;;;;;;;15.48;10.63;;;;;;;23.59;14.87;101821.25;5516237;32;33782;-83
2022/03/23 11:31:30;;;;;;;16.55;9.85;;;;;;;22.08;15.17;101826.59;5521660;32;34328;-83
2022/03/23 11:34:36;;;;;;;13.32;10.02;;;;;;;24.40;14.12;101818.12;5524775;32;33634;-82
2022/03/23 11:37:41;;;;;;;16.65;9.95;;;;;;;26.64;11.57;101808.88;5525635;32;34647;-83
2022/03/23 11:40:47;;;;;;;13.50;9.23;;;;;;;24.18;13.62;101803.69;5526784;32;34015;-82
2022/03/23 11:43:50;;;;;;;14.75;9.15;;;;;;;23.02;14.01;101808.59;5517571;32;34540;-83
2022/03/23 11:47:05;;;;;;;12.40;8.82;;;;;;;23.37;13.82;101799.50;5525023;32;34227;-83
2022/03/23 11:50:28;;;;;;;14.77;9.00;;;;;;;22.94;13.88;101800.25;5524980;32;35198;-84
2022/03/23 11:53:52;;;;;;;18.05;9.43;;;;;;;22.93;15.10;101796.69;5537343;32;33979;-86
2022/03/23 11:57:00;;;;;;;23.62;9.90;;;;;;;22.79;15.58;101783.41;5546217;32;35214;-84
2022/03/23 12:00:16;;;;;;;13.43;9.32;;;;;;;23.44;13.85;101786.34;5545695;32;35200;-83
2022/03/23 12:03:41;;;;;;;14.38;9.40;;;;;;;23.25;13.89;101773.41;5524319;32;35199;-83
2022/03/23 12:06:46;;;;;;;14.48;8.80;;;;;;;21.68;14.47;101764.78;5515850;32;34251;-84
2022/03/23 12:09:49;;;;;;;14.15;8.95;;;;;;;22.17;14.44;101772.84;5517103;32;34559;-83
2022/03/23 12:12:52;;;;;;;15.55;9.23;;;;;;;21.19;15.06;101755.78;5526097;32;33443;-84
2022/03/23 12:15:59;;;;;;;14.68;8.40;;;;;;;21.41;14.90;101755.03;5524502;32;33740;-83
2022/03/23 12:19:04;;;;;;;14.43;9.50;;;;;;;21.41;14.71;101749.66;5529637;32;34603;-82
2022/03/23 12:22:07;;;;;;;12.05;8.25;;;;;;;21.65;14.96;101740.69;5533620;32;34760;-83
2022/03/23 12:25:16;;;;;;;14.90;8.75;;;;;;;22.17;14.63;101743.13;5522706;32;34518;-83
2022/03/23 12:28:53;;;;;;;11.63;8.02;;;;;;;22.00;14.22;101739.88;5520660;32;34439;-83
2022/03/23 12:32:08;;;;;;;11.65;8.55;;;;;;;21.57;14.73;101732.31;5528681;32;33448;-83
2022/03/23 12:35:11;;;;;;;17.40;8.48;;;;;;;20.90;15.13;101734.47;5523878;32;34056;-83
2022/03/23 12:38:25;;;;;;;16.20;8.38;;;;;;;21.21;14.94;101727.69;5526127;32;34281;-82
2022/03/23 12:41:46;;;;;;;12.35;8.23;;;;;;;21.33;14.52;101723.25;5525319;32;34986;-89
2022/03/23 12:44:49;;;;;;;;;;;;;;;21.41;14.95;101722.66;5521575;32;34528;-84
2022/03/23 12:47:54;;;;;;;11.02;8.32;;;;;;;21.19;14.15;101718.88;5518694;32;34740;-84
2022/03/23 12:58:01;;;;;;;11.35;8.27;;;;;;;20.42;14.62;101707.22;5532614;32;34143;-84
2022/03/23 13:01:19;;;;;;;13.38;8.70;;;;;;;20.24;14.69;101698.59;5534030;32;33761;-84
2022/03/23 13:04:40;;;;;;;13.02;8.13;;;;;;;20.37;14.80;101695.88;5520736;32;34553;-84
2022/03/23 13:07:44;;;;;;;11.82;8.43;;;;;;;20.19;14.80;101696.25;5524005;32;34525;-84
2022/03/23 13:11:13;;;;;;;13.40;7.70;;;;;;;20.51;15.01;101688.69;5527955;32;33600;-83
2022/03/23 13:14:17;;;;;;;17.12;8.25;;;;;;;20.80;15.05;101689.28;5538251;32;34209;-89
2022/03/23 13:17:20;;;;;;;13.40;8.35;;;;;;;20.66;14.65;101684.03;5530089;32;33887;-90
2022/03/23 13:20:27;;;;;;;11.02;7.93;;;;;;;20.72;15.33;101683.59;5525901;32;34419;-89
2022/03/23 13:23:30;;;;;;;13.35;8.43;;;;;;;20.31;15.04;101675.66;5530706;32;34047;-84
2022/03/23 13:26:45;;;;;;;14.40;8.27;;;;;;;20.81;15.12;101679.34;5519252;32;33669;-84
2022/03/23 13:29:58;;;;;;;10.63;8.10;;;;;;;20.71;14.83;101674.63;5532621;32;34459;-84
2022/03/23 13:33:01;;;;;;;12.80;8.13;;;;;;;20.86;14.43;101672.69;5532490;32;33890;-84
2022/03/23 13:36:06;;;;;;;12.10;8.82;;;;;;;20.24;15.04;101670.78;5531536;32;34224;-84
2022/03/23 13:39:14;;;;;;;12.48;7.95;;;;;;;19.98;15.09;101658.19;5535626;32;34198;-83
2022/03/23 13:45:43;;;;;;;11.80;7.95;;;;;;;19.58;15.18;101648.31;5534080;32;33725;-84
2022/03/23 13:49:21;;;;;;;16.05;7.50;;;;;;;19.76;15.09;101656.94;5534274;32;33882;-84
2022/03/23 13:52:26;;;;;;;14.90;7.70;;;;;;;20.01;14.94;101640.97;5516479;32;34230;-85
2022/03/23 13:55:29;;;;;;;11.20;7.47;;;;;;;20.19;14.60;101630.72;5529190;32;33744;-86
2022/03/23 13:58:32;;;;;;;10.80;7.90;;;;;;;20.57;14.57;101631.62;5520506;32;34566;-86
2022/03/23 14:01:40;;;;;;;15.90;8.23;;;;;;;20.49;14.27;101625.91;5514834;32;34072;-86
2022/03/23 14:04:44;;;;;;;15.43;8.20;;;;;;;20.43;14.52;101624.53;5528380;32;33630;-86
2022/03/23 14:07:48;;;;;;;10.82;8.13;;;;;;;20.60;14.69;101618.78;5532713;32;34130;-87
2022/03/23 14:10:51;;;;;;;14.23;7.62;;;;;;;20.33;15.42;101613.56;5526055;32;34081;-86
2022/03/23 14:13:54;;;;;;;11.88;7.87;;;;;;;20.23;14.73;101615.19;5527062;32;33862;-86
2022/03/23 14:17:03;;;;;;;13.60;8.20;;;;;;;20.27;14.50;101616.69;5527902;32;34418;-87
2022/03/23 14:20:08;;;;;;;12.13;7.10;;;;;;;19.94;14.90;101605.47;5541711;32;34922;-87
2022/03/23 14:23:11;;;;;;;12.75;7.65;;;;;;;20.31;14.91;101602.91;5533639;32;33747;-86
2022/03/23 14:26:36;;;;;;;13.38;7.65;;;;;;;20.28;14.57;101603.13;5526733;32;33149;-86
2022/03/23 14:29:42;;;;;;;9.82;7.03;;;;;;;19.87;14.59;101591.56;5538786;32;34262;-85
2022/03/23 14:32:50;;;;;;;16.67;6.90;;;;;;;19.67;14.35;101584.91;5531049;32;35172;-85
2022/03/23 14:35:55;;;;;;;13.43;7.20;;;;;;;19.85;14.14;101580.06;5526875;32;33731;-85
2022/03/23 14:38:58;;;;;;;9.95;7.40;;;;;;;20.03;14.28;101582.47;5525591;32;33554;-85
2022/03/23 14:42:01;;;;;;;10.52;7.12;;;;;;;19.95;14.15;101577.56;5532421;32;34019;-86
2022/03/23 14:45:05;;;;;;;14.40;7.37;;;;;;;19.80;14.10;101571.44;5537728;32;35048;-85
2022/03/23 14:48:36;;;;;;;10.60;7.85;;;;;;;19.88;13.95;101570.91;5535509;32;33951;-86
2022/03/23 14:51:41;;;;;;;10.18;7.45;;;;;;;20.09;13.96;101560.47;5538949;32;35242;-87
2022/03/23 14:54:44;;;;;;;12.50;8.27;;;;;;;20.17;14.58;101559.94;5530198;32;35427;-85
2022/03/23 14:57:48;;;;;;;11.65;7.72;;;;;;;20.06;14.04;101555.28;5533974;32;34694;-86
2022/03/23 15:00:58;;;;;;;12.57;7.90;;;;;;;20.06;14.19;101556.16;5533705;32;33928;-85
2022/03/23 15:04:03;;;;;;;11.00;7.47;;;;;;;19.69;14.07;101545.28;5534930;32;34151;-83
2022/03/23 15:13:54;;;;;;;12.63;7.30;;;;;;;20.08;13.93;101539.03;5534974;32;33960;-89
2022/03/23 15:16:57;;;;;;;10.60;6.90;;;;;;;19.95;14.03;101539.03;5535920;32;34357;-89
2022/03/23 15:20:01;;;;;;;10.05;7.12;;;;;;;20.11;13.93;101536.13;5533433;32;35056;-84
2022/03/23 15:23:05;;;;;;;12.37;7.22;;;;;;;20.01;13.81;101531.38;5524398;32;34541;-85
2022/03/23 15:26:09;;;;;;;13.68;7.40;;;;;;;19.83;14.45;101524.59;5516518;32;34143;-84
2022/03/23 15:29:13;;;;;;;10.73;7.05;;;;;;;19.73;14.01;101524.38;5531344;32;35305;-84
2022/03/23 15:32:16;;;;;;;11.68;6.75;;;;;;;19.60;13.94;101522.56;5517817;32;35309;-84
2022/03/23 15:35:19;;;;;;;9.52;6.93;;;;;;;19.31;14.21;101516.53;5515310;32;34339;-84
2022/03/23 15:38:22;;;;;;;12.65;7.10;;;;;;;19.28;14.02;101522.09;5514753;32;34187;-84
2022/03/23 15:41:25;;;;;;;9.32;6.80;;;;;;;19.35;14.04;101518.00;5523217;32;34354;-84
2022/03/23 15:44:28;;;;;;;9.68;6.75;;;;;;;19.35;14.13;101513.50;5518649;32;34107;-84
2022/03/23 15:47:31;;;;;;;10.98;7.03;;;;;;;19.35;14.19;101521.56;5518188;32;34216;-84
2022/03/23 15:50:35;;;;;;;11.98;6.45;;;;;;;19.17;14.12;101515.66;5514637;32;33947;-85
2022/03/23 15:53:40;;;;;;;11.02;7.28;;;;;;;19.09;13.94;101509.91;5514038;32;34473;-84
2022/03/23 15:56:49;;;;;;;10.13;6.53;;;;;;;19.05;14.11;101509.25;5514531;32;33996;-84
2022/03/23 15:59:51;;;;;;;17.05;7.18;;;;;;;18.97;14.42;101500.81;5513706;32;33747;-84
2022/03/23 16:02:55;;;;;;;9.95;6.93;;;;;;;19.02;14.28;101503.19;5515569;32;33456;-83
2022/03/23 16:05:58;;;;;;;10.70;7.05;;;;;;;18.94;14.30;101501.03;5514757;32;34087;-84
2022/03/23 16:09:01;;;;;;;10.88;6.93;;;;;;;18.89;14.19;101501.34;5516083;32;34038;-84
2022/03/23 16:12:04;;;;;;;15.88;7.25;;;;;;;18.52;14.39;101504.66;5516400;32;34947;-83
2022/03/23 16:15:08;;;;;;;9.68;7.32;;;;;;;18.41;14.61;101496.44;5515789;32;34696;-83
2022/03/23 16:18:11;;;;;;;10.45;6.60;;;;;;;18.40;14.76;101500.94;5515612;32;35149;-85
2022/03/23 16:21:15;;;;;;;12.40;7.15;;;;;;;18.25;15.01;101500.09;5515700;32;34096;-84
2022/03/23 16:24:18;;;;;;;11.43;7.00;;;;;;;18.17;15.15;101502.44;5516664;32;34505;-84
2022/03/23 16:27:21;;;;;;;13.15;6.55;;;;;;;18.04;15.34;101499.62;5515647;32;34294;-85
2022/03/23 16:30:25;;;;;;;12.05;7.12;;;;;;;17.89;15.41;101498.78;5516377;32;34310;-84
2022/03/23 16:33:28;;;;;;;11.80;7.22;;;;;;;17.61;15.66;101497.81;5514482;32;34118;-84
2022/03/23 16:36:31;;;;;;;16.05;7.20;;;;;;;17.55;15.71;101500.88;5515033;32;35285;-84
